Time;durP1;ratioP1;P1;durP2;ratioP2;P2;SDS_P1;SDS_P2;PMS_P1;PMS_P2;Temp;Humidity;BMP_temperature;BMP_pressure;BME280_temperature;BME280_humidity;BME280_pressure;Samples;Min_cycle;Max_cycle;Signal;HPM_P1;HPM_P2
2024/01/10 00:00:47;;;;;;;10.73;6.53;;;;;;;-3.64;66.18;96762.16;7399637;19;20406;-89
2024/01/10 00:03:28;;;;;;;7.40;5.27;;;;;;;-3.30;66.26;96809.09;7397784;19;20401;-89
2024/01/10 00:06:10;;;;;;;11.83;7.50;;;;;;;-3.42;66.07;96801.22;7399586;19;20372;-90
2024/01/10 00:08:51;;;;;;;9.93;6.17;;;;;;;-4.04;65.99;96715.25;7395291;19;20460;-89
2024/01/10 00:11:32;;;;;;;11.93;5.70;;;;;;;-3.72;65.73;96757.22;7399716;19;20424;-89
2024/01/10 00:14:13;;;;;;;8.17;6.43;;;;;;;-2.91;65.84;96877.59;7400534;19;20375;-90
2024/01/10 00:16:54;;;;;;;9.03;8.03;;;;;;;-3.82;65.45;96732.94;7398217;19;20388;-91
2024/01/10 00:19:35;;;;;;;9.53;6.70;;;;;;;-3.59;65.75;96764.13;7398134;19;20388;-90
2024/01/10 00:22:16;;;;;;;8.47;6.37;;;;;;;-3.96;65.68;96712.47;7399986;19;20448;-90
2024/01/10 00:24:58;;;;;;;15.97;7.77;;;;;;;-3.33;66.07;96810.28;7398417;19;20388;-90
2024/01/10 00:27:39;;;;;;;12.03;7.23;;;;;;;-3.91;66.27;96722.94;7399542;19;20371;-89
2024/01/10 00:30:21;;;;;;;11.83;6.70;;;;;;;-3.85;65.91;96729.03;7398170;19;20702;-90
2024/01/10 00:33:02;;;;;;;15.53;7.87;;;;;;;-4.09;66.30;96714.22;7397819;19;20424;-90
2024/01/10 00:35:44;;;;;;;11.60;7.00;;;;;;;-4.66;66.58;96616.44;7400377;19;20394;-90
2024/01/10 00:38:25;;;;;;;9.97;6.30;;;;;;;-3.53;65.65;96768.44;7398385;19;20389;-89
2024/01/10 00:41:06;;;;;;;11.57;5.70;;;;;;;-4.20;66.76;96679.72;7397664;19;20380;-89
2024/01/10 00:43:48;;;;;;;9.60;6.60;;;;;;;-3.96;66.51;96719.38;7398546;19;20778;-89
2024/01/10 00:46:29;;;;;;;5.20;3.80;;;;;;;-3.60;66.59;96778.72;7397692;19;20390;-90
2024/01/10 00:49:10;;;;;;;9.87;6.27;;;;;;;-4.38;66.86;96653.91;7396666;19;20716;-90
2024/01/10 00:51:51;;;;;;;9.00;6.17;;;;;;;-4.98;67.00;96545.50;7398425;19;20384;-89
2024/01/10 00:54:32;;;;;;;7.50;6.13;;;;;;;-3.89;67.59;96730.44;7403469;19;20381;-89
2024/01/10 00:57:14;;;;;;;7.63;6.83;;;;;;;-3.15;67.71;96842.25;7402654;19;20376;-89
2024/01/10 00:59:55;;;;;;;10.20;6.97;;;;;;;-3.94;68.37;96748.94;7400001;19;20368;-88
2024/01/10 01:02:39;;;;;;;7.57;6.70;;;;;;;-3.48;68.19;96817.41;7404144;19;20393;-89
2024/01/10 01:05:20;;;;;;;7.97;5.93;;;;;;;-4.16;68.66;96701.44;7419089;19;20391;-90
2024/01/10 01:08:01;;;;;;;6.70;5.83;;;;;;;-4.45;68.89;96682.03;7426468;19;20454;-89
2024/01/10 01:10:43;;;;;;;7.67;5.70;;;;;;;-4.89;69.10;96600.63;7423860;19;20381;-86
2024/01/10 01:13:24;;;;;;;8.60;6.53;;;;;;;-4.06;69.21;96729.22;7426672;19;20392;-87
2024/01/10 01:16:05;;;;;;;12.33;6.20;;;;;;;-3.73;69.61;96798.44;7427963;19;20439;-86
2024/01/10 01:18:46;;;;;;;11.23;7.10;;;;;;;-3.81;70.40;96804.53;7426501;19;20384;-84
2024/01/10 01:21:28;;;;;;;10.20;6.20;;;;;;;-3.87;69.98;96788.19;7429014;19;20393;-84
2024/01/10 01:24:09;;;;;;;11.30;6.40;;;;;;;-3.42;70.83;96859.41;7432841;19;20373;-88
2024/01/10 01:26:51;;;;;;;9.13;6.17;;;;;;;-3.95;70.51;96773.00;7414708;19;20380;-89
2024/01/10 01:29:32;;;;;;;8.97;6.30;;;;;;;-4.15;70.21;96734.53;7413429;19;20804;-89
2024/01/10 01:32:13;;;;;;;13.23;7.43;;;;;;;-4.44;69.99;96688.78;7409847;19;20364;-90
2024/01/10 01:34:54;;;;;;;8.70;5.90;;;;;;;-4.11;70.29;96727.25;7408663;19;20681;-90
2024/01/10 01:37:35;;;;;;;7.40;6.43;;;;;;;-3.31;70.49;96856.28;7407186;19;20402;-91
2024/01/10 01:40:16;;;;;;;12.60;7.13;;;;;;;-4.82;70.26;96625.28;7404872;19;20467;-90
2024/01/10 01:42:58;;;;;;;13.30;6.67;;;;;;;-3.66;69.66;96776.13;7402919;19;20950;-90
2024/01/10 01:45:39;;;;;;;8.20;6.00;;;;;;;-4.41;69.75;96661.97;7404362;19;20403;-90
2024/01/10 01:48:23;;;;;;;10.37;5.60;;;;;;;-3.87;69.84;96757.44;7403135;19;20389;-90
2024/01/10 01:51:07;;;;;;;11.97;7.20;;;;;;;-4.15;70.02;96706.34;7403264;19;20431;-89
2024/01/10 01:53:49;;;;;;;8.07;5.87;;;;;;;-4.51;69.77;96649.53;7401836;19;20890;-89
2024/01/10 01:56:30;;;;;;;8.67;7.20;;;;;;;-4.32;70.07;96671.03;7404261;19;20376;-89
2024/01/10 01:59:12;;;;;;;9.10;6.50;;;;;;;-3.97;70.85;96736.53;7434652;19;20396;-87
2024/01/10 02:01:56;;;;;;;11.50;6.13;;;;;;;-4.19;70.09;96694.09;7433930;19;20414;-88
2024/01/10 02:04:37;;;;;;;7.57;6.07;;;;;;;-3.89;70.73;96761.97;7427588;19;20456;-89
2024/01/10 02:07:18;;;;;;;13.43;7.27;;;;;;;-3.95;71.01;96736.31;7414013;19;20432;-88
2024/01/10 02:09:59;;;;;;;10.90;5.93;;;;;;;-4.35;71.35;96692.72;7412529;19;20394;-89
2024/01/10 02:12:41;;;;;;;7.77;5.20;;;;;;;-4.10;71.42;96740.84;7404304;19;20500;-90
2024/01/10 02:15:23;;;;;;;9.70;7.60;;;;;;;-3.85;71.44;96755.47;7404201;19;20361;-89
2024/01/10 02:18:07;;;;;;;9.30;6.87;;;;;;;-4.40;71.47;96697.63;7402850;19;20405;-88
2024/01/10 02:20:50;;;;;;;12.53;7.83;;;;;;;-4.20;71.64;96720.72;7402756;19;20872;-90
2024/01/10 02:23:31;;;;;;;10.17;6.87;;;;;;;-4.08;71.71;96728.63;7400505;19;20440;-91
2024/01/10 02:26:12;;;;;;;20.70;8.50;;;;;;;-4.66;72.18;96646.38;7403171;19;20393;-89
2024/01/10 02:28:53;;;;;;;14.10;7.87;;;;;;;-3.26;71.92;96846.19;7400713;19;20424;-90
2024/01/10 02:31:34;;;;;;;11.63;6.50;;;;;;;-3.63;72.51;96798.84;7402695;19;20395;-89
2024/01/10 02:34:15;;;;;;;8.90;5.50;;;;;;;-4.19;73.13;96717.94;7401757;19;20368;-89
2024/01/10 02:36:57;;;;;;;10.43;7.70;;;;;;;-3.68;73.76;96775.56;7402746;19;20854;-89
2024/01/10 02:39:38;;;;;;;9.60;7.70;;;;;;;-4.17;73.79;96721.13;7401616;19;20361;-90
2024/01/10 02:42:19;;;;;;;10.37;7.10;;;;;;;-3.56;74.24;96831.19;7400970;19;20412;-90
2024/01/10 02:45:00;;;;;;;11.30;7.50;;;;;;;-4.07;74.74;96737.88;7402841;19;20463;-90
2024/01/10 02:47:41;;;;;;;12.43;7.80;;;;;;;-4.47;75.64;96696.81;7401040;19;20373;-90
2024/01/10 02:50:22;;;;;;;12.40;6.80;;;;;;;-4.37;75.65;96693.91;7400439;19;20782;-89
2024/01/10 02:53:03;;;;;;;10.27;7.23;;;;;;;-3.97;75.78;96756.22;7400767;19;20858;-89
2024/01/10 02:55:46;;;;;;;11.07;6.23;;;;;;;-4.22;76.11;96715.00;7400981;19;20373;-90
2024/01/10 02:58:28;;;;;;;11.80;7.33;;;;;;;-4.65;75.63;96646.19;7403337;19;20707;-90
2024/01/10 03:01:12;;;;;;;11.13;7.27;;;;;;;-4.27;76.16;96705.34;7402332;19;20376;-89
2024/01/10 03:03:56;;;;;;;10.47;7.60;;;;;;;-4.23;76.89;96696.28;7400435;19;20404;-89
2024/01/10 03:06:37;;;;;;;9.73;6.90;;;;;;;-3.98;77.86;96744.41;7402320;19;20377;-89
2024/01/10 03:09:18;;;;;;;9.57;7.77;;;;;;;-5.25;78.45;96535.22;7400259;19;20855;-89
2024/01/10 03:11:59;;;;;;;12.27;7.77;;;;;;;-5.21;79.11;96550.97;7400212;19;20400;-89
2024/01/10 03:14:40;;;;;;;12.60;7.17;;;;;;;-4.06;77.93;96731.75;7401912;19;20365;-88
2024/01/10 03:17:22;;;;;;;10.43;7.27;;;;;;;-4.08;77.95;96708.13;7402099;19;20393;-89
2024/01/10 03:20:04;;;;;;;13.20;7.30;;;;;;;-4.32;78.52;96678.72;7401243;19;20488;-89
2024/01/10 03:22:46;;;;;;;10.47;7.23;;;;;;;-4.55;80.10;96653.50;7400632;19;20402;-89
2024/01/10 03:25:27;;;;;;;15.40;7.83;;;;;;;-4.26;79.83;96699.22;7401865;19;20398;-89
2024/01/10 03:28:08;;;;;;;15.37;7.87;;;;;;;-4.56;80.14;96636.56;7399678;19;20907;-89
2024/01/10 03:30:49;;;;;;;10.93;7.20;;;;;;;-3.81;80.03;96742.22;7400408;19;20389;-89
2024/01/10 03:33:30;;;;;;;12.53;7.23;;;;;;;-4.05;81.26;96718.75;7398710;19;20404;-89
2024/01/10 03:36:15;;;;;;;15.80;8.23;;;;;;;-4.61;81.86;96670.41;7400126;19;20384;-88
2024/01/10 03:38:56;;;;;;;11.33;7.50;;;;;;;-4.45;82.86;96675.19;7399972;19;20894;-89
2024/01/10 03:41:38;;;;;;;16.10;9.77;;;;;;;-4.53;85.11;96683.03;7399918;19;20397;-89
2024/01/10 03:44:19;;;;;;;14.03;9.50;;;;;;;-4.40;86.52;96697.63;7397598;19;20364;-88
2024/01/10 03:47:00;;;;;;;14.43;7.90;;;;;;;-4.69;87.18;96647.56;7401169;19;20411;-89
2024/01/10 03:49:41;;;;;;;14.10;9.03;;;;;;;-5.03;85.46;96612.59;7399417;19;20704;-89
2024/01/10 03:52:22;;;;;;;13.30;8.10;;;;;;;-4.55;86.59;96677.31;7399133;19;20417;-90
2024/01/10 03:55:03;;;;;;;12.03;6.80;;;;;;;-4.63;86.98;96674.94;7399363;19;20388;-89
2024/01/10 03:57:44;;;;;;;9.67;7.70;;;;;;;-4.26;87.85;96719.72;7399264;19;20384;-88
2024/01/10 04:00:25;;;;;;;13.50;8.60;;;;;;;-4.75;89.75;96674.69;7398925;19;20448;-89
2024/01/10 04:03:07;;;;;;;12.23;8.73;;;;;;;-5.07;89.71;96609.66;7397793;19;20416;-89
2024/01/10 04:05:48;;;;;;;11.60;8.47;;;;;;;-4.34;88.91;96719.13;7399381;19;20369;-90
2024/01/10 04:08:29;;;;;;;16.23;8.27;;;;;;;-4.84;90.61;96652.06;7398297;19;20384;-90
2024/01/10 04:11:10;;;;;;;16.20;9.07;;;;;;;-4.22;89.01;96731.16;7399391;19;20384;-89
2024/01/10 04:13:51;;;;;;;10.87;8.00;;;;;;;-4.30;89.05;96710.06;7397412;19;20485;-89
2024/01/10 04:16:32;;;;;;;13.00;8.37;;;;;;;-5.17;89.70;96588.75;7399265;19;20381;-89
2024/01/10 04:19:13;;;;;;;9.33;7.47;;;;;;;-5.25;88.87;96560.78;7398831;19;20384;-89
2024/01/10 04:21:54;;;;;;;12.40;8.43;;;;;;;-4.52;89.71;96663.34;7397832;19;20866;-89
2024/01/10 04:24:35;;;;;;;11.93;8.13;;;;;;;-4.70;90.96;96660.56;7399294;19;20383;-90
2024/01/10 04:27:17;;;;;;;11.37;7.50;;;;;;;-4.79;93.23;96670.16;7398562;19;20369;-89
2024/01/10 04:29:59;;;;;;;13.70;8.53;;;;;;;-3.79;92.74;96805.13;7398287;19;20401;-90
2024/01/10 04:32:40;;;;;;;12.10;8.37;;;;;;;-5.14;93.07;96601.16;7397693;19;20412;-89
2024/01/10 04:35:21;;;;;;;12.80;8.00;;;;;;;-4.63;93.55;96677.50;7398799;19;20413;-89
2024/01/10 04:38:02;;;;;;;14.83;8.43;;;;;;;-5.85;95.76;96498.50;7399587;19;20385;-89
2024/01/10 04:40:43;;;;;;;15.67;9.27;;;;;;;-5.31;96.45;96594.81;7401032;19;20364;-90
2024/01/10 04:43:24;;;;;;;15.43;7.07;;;;;;;-4.97;97.58;96655.34;7396388;19;20416;-89
2024/01/10 04:46:06;;;;;;;17.67;9.47;;;;;;;-5.05;98.24;96627.38;7398694;19;20420;-90
2024/01/10 04:48:47;;;;;;;14.73;9.40;;;;;;;-4.99;99.90;96648.81;7396186;19;20384;-89
2024/01/10 04:51:28;;;;;;;11.27;8.53;;;;;;;-5.28;99.56;96612.31;7395619;19;20421;-90
2024/01/10 04:54:09;;;;;;;15.83;8.23;;;;;;;-5.07;100.00;96637.00;7397936;19;20842;-89
2024/01/10 04:56:50;;;;;;;11.90;8.07;;;;;;;-4.98;100.00;96635.88;7398098;19;20877;-89
2024/01/10 04:59:31;;;;;;;10.03;7.00;;;;;;;-4.91;100.00;96658.91;7398214;19;20388;-89
2024/01/10 05:02:13;;;;;;;11.40;8.13;;;;;;;-4.81;100.00;96680.59;7397627;19;20459;-89
2024/01/10 05:04:54;;;;;;;13.50;8.60;;;;;;;-4.86;100.00;96665.00;7397063;19;20375;-89
2024/01/10 05:07:35;;;;;;;12.40;7.97;;;;;;;-4.81;100.00;96667.81;7396519;19;20392;-90
2024/01/10 05:10:16;;;;;;;15.60;8.40;;;;;;;-4.63;100.00;96699.75;7397827;19;20682;-89
2024/01/10 05:12:57;;;;;;;20.67;9.10;;;;;;;-4.89;100.00;96662.84;7395977;19;20408;-89
2024/01/10 05:15:38;;;;;;;17.20;8.53;;;;;;;-4.79;100.00;96668.41;7398330;19;20369;-90
2024/01/10 05:18:20;;;;;;;14.17;9.37;;;;;;;-5.37;100.00;96587.91;7397027;19;20384;-90
2024/01/10 05:21:03;;;;;;;14.00;8.17;;;;;;;-4.86;100.00;96672.69;7398594;19;20368;-89
2024/01/10 05:23:45;;;;;;;12.10;8.30;;;;;;;-4.62;100.00;96720.03;7395465;19;20692;-89
2024/01/10 05:26:26;;;;;;;12.20;8.70;;;;;;;-5.00;100.00;96645.47;7396461;19;20392;-89
2024/01/10 05:29:07;;;;;;;11.30;7.97;;;;;;;-4.77;100.00;96684.34;7394863;19;20389;-88
2024/01/10 05:31:49;;;;;;;18.03;8.73;;;;;;;-4.53;100.00;96738.59;7395942;19;20395;-88
2024/01/10 05:34:30;;;;;;;13.67;8.60;;;;;;;-5.55;100.00;96588.41;7396061;19;20373;-88
2024/01/10 05:37:11;;;;;;;15.23;8.60;;;;;;;-5.21;100.00;96637.94;7395945;19;20889;-89
2024/01/10 05:39:52;;;;;;;11.33;8.57;;;;;;;-4.71;100.00;96716.09;7397549;19;20392;-89
2024/01/10 05:42:33;;;;;;;11.27;8.33;;;;;;;-4.38;100.00;96771.72;7395570;19;20878;-89
2024/01/10 05:45:17;;;;;;;14.07;8.40;;;;;;;-4.33;100.00;96779.59;7396483;19;20373;-89
2024/01/10 05:47:59;;;;;;;12.40;8.33;;;;;;;-4.93;100.00;96701.81;7395394;19;20384;-88
2024/01/10 05:50:40;;;;;;;10.07;7.73;;;;;;;-4.59;100.00;96747.81;7395348;19;20404;-88
2024/01/10 05:53:24;;;;;;;20.33;9.27;;;;;;;-5.13;100.00;96655.66;7394955;19;20416;-88
2024/01/10 05:56:07;;;;;;;13.70;8.97;;;;;;;-5.16;100.00;96638.94;7395428;19;20381;-88
2024/01/10 05:58:48;;;;;;;14.63;8.03;;;;;;;-4.84;100.00;96700.69;7396486;19;20484;-88
2024/01/10 06:01:29;;;;;;;13.47;9.13;;;;;;;-5.37;100.00;96605.81;7395933;19;20447;-88
2024/01/10 06:04:10;;;;;;;12.93;8.40;;;;;;;-4.76;100.00;96695.38;7396424;19;20360;-90
2024/01/10 06:06:51;;;;;;;10.50;8.50;;;;;;;-5.13;100.00;96659.00;7395416;19;20456;-88
2024/01/10 06:09:33;;;;;;;9.67;8.20;;;;;;;-6.13;100.00;96500.31;7403246;19;20368;-88
2024/01/10 06:12:14;;;;;;;15.13;8.83;;;;;;;-4.86;100.00;96687.25;7402220;19;20423;-88
2024/01/10 06:14:55;;;;;;;13.83;8.50;;;;;;;-4.70;100.00;96706.63;7406478;19;20392;-91
2024/01/10 06:17:36;;;;;;;12.83;8.27;;;;;;;-4.54;100.00;96727.56;7403181;19;20392;-89
2024/01/10 06:20:18;;;;;;;11.00;8.53;;;;;;;-4.60;100.00;96714.72;7403444;19;20391;-91
2024/01/10 06:22:59;;;;;;;11.63;8.30;;;;;;;-4.57;100.00;96734.84;7402690;19;20385;-90
2024/01/10 06:25:40;;;;;;;14.13;7.93;;;;;;;-4.42;100.00;96745.72;7402327;19;20376;-91
2024/01/10 06:28:23;;;;;;;13.53;8.13;;;;;;;-5.04;100.00;96646.84;7400740;19;20392;-91
2024/01/10 06:31:04;;;;;;;13.93;8.40;;;;;;;-4.83;100.00;96692.81;7403191;19;20482;-89
2024/01/10 06:33:45;;;;;;;18.47;9.80;;;;;;;-4.56;100.00;96750.00;7399938;19;20471;-88
2024/01/10 06:36:26;;;;;;;13.37;8.13;;;;;;;-4.48;100.00;96723.41;7402830;19;20392;-89
2024/01/10 06:39:12;;;;;;;12.73;9.83;;;;;;;-4.84;100.00;96693.00;7403871;19;20372;-88
2024/01/10 06:41:53;;;;;;;14.10;9.57;;;;;;;-4.84;100.00;96693.00;7401365;19;20405;-89
2024/01/10 06:44:35;;;;;;;13.27;8.87;;;;;;;-4.85;100.00;96691.38;7401993;19;20372;-89
2024/01/10 06:47:16;;;;;;;15.17;7.90;;;;;;;-4.32;100.00;96745.31;7401433;19;20384;-88
2024/01/10 06:49:57;;;;;;;14.27;9.10;;;;;;;-4.61;100.00;96708.81;7403631;19;20714;-88
2024/01/10 06:52:40;;;;;;;13.40;9.20;;;;;;;-4.36;100.00;96750.03;7413355;19;20409;-90
2024/01/10 06:55:23;;;;;;;12.43;8.23;;;;;;;-4.33;100.00;96741.19;7404389;19;20387;-89
2024/01/10 06:58:05;;;;;;;15.63;8.53;;;;;;;-4.04;100.00;96776.75;7403528;19;20372;-89
2024/01/10 07:00:46;;;;;;;15.33;10.17;;;;;;;-4.77;100.00;96673.31;7405858;19;20435;-88
2024/01/10 07:03:37;;;;;;;14.00;9.00;;;;;;;-4.79;100.00;96658.16;7402489;19;20425;-90
2024/01/10 07:06:18;;;;;;;13.57;8.27;;;;;;;-5.15;100.00;96609.03;7404913;19;21202;-93
2024/01/10 07:09:00;;;;;;;14.37;8.93;;;;;;;-5.88;100.00;96528.75;7403216;19;20369;-93
2024/01/10 07:11:41;;;;;;;10.37;9.10;;;;;;;-5.21;100.00;96641.28;7404532;19;20759;-93
2024/01/10 07:14:22;;;;;;;18.90;10.87;;;;;;;-4.77;100.00;96704.03;7403959;19;20390;-93
2024/01/10 07:17:03;;;;;;;13.43;10.10;;;;;;;-5.17;100.00;96662.16;7404124;19;20385;-93
2024/01/10 07:19:46;;;;;;;16.70;9.57;;;;;;;-4.28;100.00;96772.16;7402963;19;20369;-93
2024/01/10 07:22:27;;;;;;;16.97;10.13;;;;;;;-4.10;100.00;96817.72;7403167;19;20448;-92
2024/01/10 07:25:14;;;;;;;13.03;9.57;;;;;;;-5.16;100.00;96654.28;7403543;19;20906;-94
2024/01/10 07:27:55;;;;;;;13.30;9.07;;;;;;;-5.16;100.00;96638.16;7403594;19;20373;-93
2024/01/10 07:30:36;;;;;;;14.70;9.30;;;;;;;-4.86;100.00;96689.81;7403958;19;20451;-93
2024/01/10 07:33:21;;;;;;;15.80;10.00;;;;;;;-5.97;100.00;96515.34;7402727;19;20400;-95
2024/01/10 07:36:02;;;;;;;20.37;10.83;;;;;;;-4.80;100.00;96686.50;7404863;19;20394;-93
2024/01/10 07:38:43;;;;;;;13.33;9.63;;;;;;;-5.70;100.00;96545.09;7404886;19;20392;-93
2024/01/10 07:41:26;;;;;;;17.70;9.93;;;;;;;-4.86;100.00;96679.56;7404830;19;20393;-96
2024/01/10 07:44:10;;;;;;;16.80;11.17;;;;;;;-5.61;100.00;96557.72;7404466;19;20371;-94
2024/01/10 07:46:54;;;;;;;14.30;9.43;;;;;;;-3.65;100.00;96858.00;7404178;19;20376;-93
2024/01/10 07:49:37;;;;;;;13.60;8.60;;;;;;;-5.59;100.00;96538.66;7404695;19;20384;-93
2024/01/10 07:52:21;;;;;;;19.40;10.50;;;;;;;-4.21;100.00;96734.50;7403177;19;20384;-94
2024/01/10 07:55:04;;;;;;;15.90;10.50;;;;;;;-4.51;100.00;96690.53;7405852;19;20364;-93
2024/01/10 07:57:46;;;;;;;14.33;8.60;;;;;;;-4.34;100.00;96722.47;7404474;19;20444;-94
2024/01/10 08:00:29;;;;;;;13.40;9.90;;;;;;;-4.07;100.00;96755.81;7402883;19;20398;-93
2024/01/10 08:03:10;;;;;;;16.10;10.83;;;;;;;-3.49;100.00;96840.69;7401875;19;20416;-93
2024/01/10 08:05:52;;;;;;;16.27;11.20;;;;;;;-3.45;100.00;96849.56;7402816;19;20748;-93
2024/01/10 08:08:36;;;;;;;15.23;10.30;;;;;;;-3.99;100.00;96750.53;7400866;19;20389;-93
2024/01/10 08:11:17;;;;;;;14.30;10.70;;;;;;;-3.70;100.00;96783.44;7402136;19;20385;-95
2024/01/10 08:14:00;;;;;;;14.77;8.63;;;;;;;-3.85;100.00;96752.09;7401387;19;20388;-94
2024/01/10 08:16:44;;;;;;;20.53;11.50;;;;;;;-3.76;100.00;96758.59;7402926;19;20409;-93
2024/01/10 08:19:25;;;;;;;14.23;9.73;;;;;;;-3.96;100.00;96719.38;7402028;19;20408;-94
2024/01/10 08:22:07;;;;;;;15.20;10.37;;;;;;;-3.12;100.00;96840.06;7401913;19;20441;-93
2024/01/10 08:24:49;;;;;;;13.00;8.43;;;;;;;-4.85;100.00;96571.91;7401763;19;20380;-93
2024/01/10 08:27:30;;;;;;;15.27;8.97;;;;;;;-3.88;100.00;96719.97;7401898;19;20389;-93
2024/01/10 08:30:11;;;;;;;13.90;10.00;;;;;;;-3.72;100.00;96723.09;7401730;19;20464;-92
2024/01/10 08:32:57;;;;;;;15.63;10.90;;;;;;;-3.81;100.00;96701.97;7401169;19;20397;-94
2024/01/10 08:35:38;;;;;;;14.10;10.40;;;;;;;-2.94;100.00;96821.50;7402646;19;20381;-93
2024/01/10 08:38:20;;;;;;;24.23;10.83;;;;;;;-3.29;100.00;96775.53;7402405;19;20385;-94
2024/01/10 08:41:37;;;;;;;15.93;9.20;;;;;;;-2.92;100.00;96818.75;7401176;19;20401;-92
2024/01/10 08:56:05;;;;;;;21.67;11.57;;;;;;;-2.46;100.00;96846.88;7406765;19;20845;-93
2024/01/10 09:06:16;;;;;;;18.20;10.40;;;;;;;-3.12;100.00;96723.78;7401628;19;20332;-93
2024/01/10 09:09:36;;;;;;;17.20;10.93;;;;;;;-3.21;100.00;96710.41;7398926;19;20410;-94
2024/01/10 09:16:54;;;;;;;17.03;11.00;;;;;;;-2.06;100.00;96868.88;7403285;19;20385;-92
2024/01/10 09:24:23;;;;;;;17.10;10.03;;;;;;;-1.92;100.00;96887.59;7405507;19;20384;-93
2024/01/10 09:27:38;;;;;;;15.80;9.60;;;;;;;-2.00;100.00;96851.84;7400759;19;20459;-93
2024/01/10 09:31:08;;;;;;;22.70;12.23;;;;;;;-2.27;100.00;96809.25;7400103;19;20405;-94
2024/01/10 09:34:19;;;;;;;15.40;9.90;;;;;;;-2.56;100.00;96746.34;7396369;19;20491;-92
2024/01/10 09:41:58;;;;;;;12.20;9.10;;;;;;;-2.02;100.00;96822.22;7399387;19;20376;-93
2024/01/10 09:45:47;;;;;;;29.73;10.90;;;;;;;-1.59;100.00;96878.94;7405002;19;20368;-91
2024/01/10 09:49:38;;;;;;;21.90;12.13;;;;;;;-2.48;100.00;96736.59;7405667;19;20447;-95
2024/01/10 09:56:43;;;;;;;;;;;;;;;;;;;;;
2024/01/10 10:04:19;;;;;;;15.40;11.53;;;;;;;-1.20;100.00;96891.53;7406297;19;20878;-93
2024/01/10 10:08:15;;;;;;;;;;;;;;;;;;;;;
2024/01/10 10:19:12;;;;;;;15.30;11.47;;;;;;;-0.88;100.00;96894.84;7406617;19;20369;-93
2024/01/10 10:26:44;;;;;;;19.23;11.90;;;;;;;-0.83;100.00;96893.44;7406957;19;20365;-92
2024/01/10 10:41:42;;;;;;;19.13;10.70;;;;;;;-0.66;100.00;96882.38;7402632;19;20380;-92
2024/01/10 10:45:01;;;;;;;14.93;11.70;;;;;;;-1.00;100.00;96818.47;7403319;19;20383;-91
2024/01/10 10:48:27;;;;;;;19.03;10.00;;;;;;;-0.45;100.00;96885.53;7421207;19;20380;-93
2024/01/10 10:59:24;;;;;;;19.73;13.60;;;;;;;-0.76;100.00;96788.53;7418337;19;20366;-91
2024/01/10 11:02:46;;;;;;;17.57;10.43;;;;;;;-0.81;99.33;96789.19;7404745;19;20373;-92
2024/01/10 11:06:26;;;;;;;19.00;13.37;;;;;;;-0.06;100.00;96887.69;7403972;19;20377;-91
2024/01/10 11:10:09;;;;;;;;;;;;;;;;;;;;;
2024/01/10 11:17:22;;;;;;;20.20;12.40;;;;;;;0.27;98.06;96884.72;7402549;19;20355;-91
2024/01/10 11:27:58;;;;;;;21.13;12.47;;;;;;;-0.13;95.68;96776.09;7404823;19;20356;-91
2024/01/10 11:35:13;;;;;;;21.90;12.70;;;;;;;0.24;96.58;96863.75;7405998;19;20341;-92
2024/01/10 11:38:29;;;;;;;17.20;11.60;;;;;;;0.24;96.75;96854.19;7404453;19;20387;-91
2024/01/10 11:57:10;;;;;;;21.00;11.83;;;;;;;-0.11;95.54;96727.66;7401285;19;20674;-91
2024/01/10 12:15:35;;;;;;;;;;;;;;;;;;;;;
2024/01/10 12:19:26;;;;;;;20.90;12.83;;;;;;;0.93;94.32;96844.25;7400227;19;20388;-92
2024/01/10 12:34:34;;;;;;;15.23;11.17;;;;;;;1.02;94.60;96839.53;7404991;19;20837;-93
2024/01/10 12:38:27;;;;;;;15.43;11.80;;;;;;;0.99;94.85;96837.41;7401238;19;20714;-92
2024/01/10 12:41:55;;;;;;;;;;;;;;;;;;;;;
2024/01/10 12:53:03;;;;;;;21.77;12.90;;;;;;;1.43;93.02;96830.88;7406276;19;20417;-89
2024/01/10 13:03:59;;;;;;;16.83;11.60;;;;;;;0.75;93.13;96710.78;7400274;19;20382;-89
2024/01/10 13:10:56;;;;;;;13.47;10.70;;;;;;;1.22;92.66;96816.72;7404532;19;20344;-85
2024/01/10 13:14:31;;;;;;;;;;;;;;;;;;;;;
2024/01/10 13:18:09;;;;;;;21.80;12.53;;;;;;;1.76;91.27;96838.03;7398905;19;20874;-86
2024/01/10 13:24:46;;;;;;;20.87;12.80;;;;;;;1.62;91.46;96723.66;7400990;19;20352;-86
2024/01/10 13:27:35;;;;;;;18.57;12.70;;;;;;;2.00;87.54;96784.41;7398206;19;20376;-86
2024/01/10 13:30:18;;;;;;;24.83;12.97;;;;;;;1.30;86.13;96650.16;7398129;19;20739;-86
2024/01/10 13:32:59;;;;;;;21.63;14.20;;;;;;;2.19;84.48;96759.09;7397025;19;20404;-86
2024/01/10 13:35:40;;;;;;;19.43;13.53;;;;;;;1.26;84.53;96639.47;7398233;19;20406;-87
2024/01/10 13:38:24;;;;;;;19.27;12.90;;;;;;;1.36;84.96;96624.16;7397893;19;20380;-87
2024/01/10 13:41:06;;;;;;;17.37;12.73;;;;;;;2.16;83.18;96663.78;7397737;19;20373;-86
2024/01/10 13:43:47;;;;;;;16.97;11.70;;;;;;;2.76;82.34;96751.97;7397041;19;20414;-87
2024/01/10 13:46:28;;;;;;;21.70;12.53;;;;;;;3.39;81.32;96820.00;7400740;19;20375;-89
2024/01/10 13:49:09;;;;;;;19.03;13.50;;;;;;;3.04;80.64;96777.00;7398211;19;20368;-90
2024/01/10 13:51:52;;;;;;;24.73;12.70;;;;;;;2.79;80.32;96727.41;7400170;19;20461;-90
2024/01/10 13:54:33;;;;;;;16.27;12.77;;;;;;;2.16;82.01;96756.97;7398103;19;20415;-90
2024/01/10 13:57:14;;;;;;;27.23;17.40;;;;;;;2.01;82.21;96709.09;7399316;19;20395;-90
2024/01/10 13:59:58;;;;;;;18.20;12.77;;;;;;;3.24;81.34;96870.63;7400381;19;20373;-90
2024/01/10 14:02:42;;;;;;;17.73;13.50;;;;;;;2.89;81.24;96831.19;7400396;19;20404;-90
2024/01/10 14:05:23;;;;;;;17.17;11.67;;;;;;;2.49;80.89;96759.56;7422242;19;20415;-89
2024/01/10 14:08:06;;;;;;;21.90;13.50;;;;;;;2.75;81.17;96797.03;7422681;19;20387;-89
2024/01/10 14:10:47;;;;;;;20.10;14.33;;;;;;;2.94;80.51;96808.75;7425127;19;20372;-88
2024/01/10 14:13:28;;;;;;;19.10;13.13;;;;;;;2.22;80.29;96704.25;7421464;19;20388;-89
2024/01/10 14:16:10;;;;;;;20.03;13.30;;;;;;;2.20;81.99;96740.72;7422328;19;20381;-88
2024/01/10 14:18:51;;;;;;;16.60;12.77;;;;;;;2.86;81.43;96777.25;7422761;19;20376;-88
2024/01/10 14:21:33;;;;;;;20.60;13.43;;;;;;;2.76;79.98;96767.50;7418796;19;20380;-88
2024/01/10 14:24:15;;;;;;;26.57;15.40;;;;;;;2.40;80.73;96782.50;7402072;19;20365;-89
2024/01/10 14:26:58;;;;;;;15.23;11.60;;;;;;;2.62;80.39;96781.78;7399287;19;20381;-89
2024/01/10 14:29:39;;;;;;;18.80;12.87;;;;;;;2.75;80.26;96762.56;7401339;19;20406;-90
2024/01/10 14:32:21;;;;;;;20.77;13.50;;;;;;;2.92;81.48;96862.66;7405151;19;20399;-90
2024/01/10 14:35:04;;;;;;;25.07;13.27;;;;;;;2.37;81.46;96753.72;7407421;19;20379;-89
2024/01/10 14:37:47;;;;;;;23.20;14.10;;;;;;;2.34;81.82;96746.38;7406662;19;20389;-90
2024/01/10 14:40:29;;;;;;;18.43;14.23;;;;;;;2.30;81.23;96758.25;7408642;19;20357;-91
2024/01/10 14:43:10;;;;;;;18.83;14.10;;;;;;;1.89;82.84;96738.63;7405863;19;20719;-89
2024/01/10 14:45:52;;;;;;;18.07;13.43;;;;;;;2.13;82.64;96780.75;7417434;19;20393;-89
2024/01/10 14:48:35;;;;;;;17.07;13.07;;;;;;;2.29;84.35;96862.84;7431820;19;20373;-89
2024/01/10 14:51:17;;;;;;;21.30;14.97;;;;;;;0.97;85.40;96705.06;7433108;19;20377;-87
2024/01/10 14:53:59;;;;;;;24.37;15.57;;;;;;;1.42;85.93;96762.06;7415310;19;20439;-89
2024/01/10 14:56:42;;;;;;;16.50;12.27;;;;;;;1.27;87.77;96798.72;7414016;19;20381;-89
2024/01/10 14:59:23;;;;;;;17.13;12.60;;;;;;;1.02;89.10;96764.59;7410575;19;20680;-89
2024/01/10 15:02:06;;;;;;;15.40;12.53;;;;;;;0.87;91.82;96786.50;7403037;19;20882;-89
2024/01/10 15:04:48;;;;;;;24.53;14.70;;;;;;;0.61;94.25;96764.47;7404703;19;20688;-90
2024/01/10 15:07:32;;;;;;;21.40;13.57;;;;;;;0.76;95.53;96782.13;7405034;19;20364;-90
2024/01/10 15:10:16;;;;;;;21.27;15.30;;;;;;;0.43;96.10;96738.75;7404172;19;20364;-90
2024/01/10 15:12:57;;;;;;;21.93;15.43;;;;;;;0.44;97.15;96753.22;7401960;19;20408;-90
2024/01/10 15:15:39;;;;;;;28.83;14.40;;;;;;;0.68;98.74;96795.38;7405302;19;20834;-90
2024/01/10 15:18:20;;;;;;;19.43;12.87;;;;;;;0.61;99.46;96794.66;7403865;19;20369;-90
2024/01/10 15:21:01;;;;;;;18.57;13.30;;;;;;;0.35;100.00;96780.38;7402883;19;20388;-89
2024/01/10 15:23:43;;;;;;;21.97;12.87;;;;;;;0.40;100.00;96832.13;7401507;19;20413;-90
2024/01/10 15:26:27;;;;;;;20.83;14.50;;;;;;;0.14;100.00;96789.41;7403012;19;20676;-89
2024/01/10 15:29:08;;;;;;;17.60;12.97;;;;;;;-0.05;100.00;96757.72;7401782;19;20381;-89
2024/01/10 15:31:50;;;;;;;17.60;11.40;;;;;;;0.71;100.00;96877.56;7402713;19;20483;-90
2024/01/10 15:34:31;;;;;;;19.00;13.30;;;;;;;0.20;100.00;96810.97;7403709;19;20376;-89